Aérodrome :
LOGIN :

S'inscrire | Disclaimer

   EN    FR    IT 

 










Légende :    VFR   VFR Marginal   IFR   IFR Intensif   IFR Très Intensif
Visi : 
Plafond : 
>= 8 km
>= 3000ft
5 à 8 km
1000 à 3000 ft
1500m à 5 km
500 à 1000 ft
800 à 1500m
200 à 500 ft
< 800m
< 200 ft
Symboles :   Orages  Brouillard  Fortes neiges  Fortes précipitations  Vent > 20 kt
SIGMETs :   Divers  Orages  Givrage  Turbulence  Onde Orograph.  Cendres Volcan.






- Altitude de l'aérodrome : 870 ft
- Code IATA : ETZ


LFJL - Metz Nancy Lorraine

DERNIER METAR :
  • 051900Z AUTO 29004KT 0400 0350 R22/0400N R04/0450N FZFG VV/// M02/M02 Q1023 TEMPO 0200 FZFG

METARs EXPIRÉS :
  • 051830Z AUTO 30005KT 0300 R22/0325N R04/0350N FZFG VV/// M02/M02 Q1022 TEMPO 0500 FZFG
  • 051800Z AUTO 31006KT 3600 0550 R22/0650D R04/P2000 BCFG VV/// M01/M02 Q1022 TEMPO 0500 FZFG
  • 051730Z AUTO 26005KT 6000 NSC 00/M01 Q1022 BECMG 1500 BR OVC002
  • 051700Z AUTO 26005KT 6000 NSC 01/M01 Q1022 BECMG 1500 BR OVC002
  • 051630Z AUTO 23005KT 6000 NSC M01/M02 Q1022 BECMG 1500 BR OVC002

TAF AMD TAF LFJL
Valide du 05 à 18h jusqu'au 06 à 18h UTC


051823Z 0518/0618 21006KT 3000 BR BKN003
TEMPO 0518/0608 0200 FZFG VV///
BECMG 0610/0612 BKN013
PROB40
TEMPO 0612/0615 BKN008
TEMPO 0615/0618 21015G25KT -RA



MET'MAP, la Météo Aéronautique d'un coup d'oeil ! - Copyright ORBIFLY Décembre 2007 - Disclaimer

ORBIFLY MET'MAP TEAM :

Programmation & Développement : Alexandra Zaïnal
Sur une idée originale de : Baudouin d'Aumeries
Assistance à la programmation : Marc-Olivier Méhu
Soutien technique & logistique : Manuel Goepfert

Contact : metmap@orbifly.com




SOURCES & CREDITS :

   NOAA